FNMAFNLU

Guest
Details From FNMA - Malanje
To FNLU - Luanda 4 De Fevereiro
Flight Number -
Tags Generated
Created
Modified
Stats Distance 187 nm / 346 km
Max Altitude 0 ft / 0 m
Waypoints 2
Social Downloads 1
Likes 0
Share VATSIM

Download

Looking for another format? Having issues loading an existing format? Contact us
Advertisement - Login to hide

Notes

Generated

Route

FNMA FNLU

ID Type Via Altitude Latitude Longitude Leg Dist Tot Dist Heading (true) Name
O FNMA APT - 0 ft / 0 m -9.51962˚ 16.30400˚ - 0 nm - -
O FNLU APT - 0 ft / 0 m -8.85561˚ 13.22570˚ 186 nm 186 nm 282° / 283° LUANDA 4 DE FEVEREIRO

Altitude Profile

Advertisement - Login to hide

Weather


0- 5 10 15 20 25 30 35+ Temperature / ° C

Clouds and Precipitation
Forecast for 2018-05-26 06:00 UTC. Updated 5 hours ago

Ground ~20,000 ft ~40,000 ft Winds

FNMA

Details ICAO FNMA (MEG)
Name MALANJE
Region Angola
Timezone Africa/Luanda (UTC+1.0)
Stats Elevation 3,868 ft / 1,179 m (AMSL)
Location -9.525085° 16.312406°
Runways 1
Magnetic Variation 2.699° W

METAR

FNMA 261000Z 27008KT 9999 SCT020 25/22 Q1017

Decode

TAF

Not found

Departure Runways

ID Width Length Bearing (true) Bearing (mag) Surface Threshold Offset Overrun Length
13 98 ft / 30 m 7,247 ft / 2,209 m 123.40° 126.10° Asphalt 0 ft / 0 m 0 ft / 0 m
31 98 ft / 30 m 7,247 ft / 2,209 m 303.40° 306.10° Asphalt 0 ft / 0 m 0 ft / 0 m

FNLU

Details ICAO FNLU (LAD)
Name LUANDA 4 DE FEVEREIRO
Region Angola
Timezone Africa/Luanda (UTC+1.0)
Stats Elevation 243 ft / 74 m (AMSL)
Location -8.858377° 13.231178°
Runways 2
Magnetic Variation 3.407° W

METAR

FNLU 261000Z VRB03KT 8000 BKN020 27/21 Q1012 NOSIG

Decode

TAF

Not found

Destination Runways

ID Width Length Bearing (true) Bearing (mag) Surface Threshold Offset Overrun Length
05 148 ft / 45 m 12,153 ft / 3,704 m 46.63° 50.04° Asphalt 0 ft / 0 m 0 ft / 0 m
07 197 ft / 60 m 8,176 ft / 2,492 m 67.40° 70.81° Asphalt 0 ft / 0 m 176 ft / 54 m
23 148 ft / 45 m 12,153 ft / 3,704 m 226.62° 230.03° Asphalt 500 ft / 152 m 0 ft / 0 m
25 197 ft / 60 m 8,176 ft / 2,492 m 247.40° 250.81° Asphalt 0 ft / 0 m 0 ft / 0 m

Approach Navaids

Runway Type Ident Frequency Range Bearing (true) Bearing (mag) Slope Elevation
23 Localiser ILD 110.30 MHz 18 nm / 33 km 226.62° 230.03° - 243 ft / 74 m (AMSL)
23 Glidescope ILD 110.30 MHz 10 nm / 19 km 226.62° 230.03° 3.00° 243 ft / 74 m (AMSL)
23 DME ILD 110.30 MHz 18 nm / 33 km - - - 243 ft / 74 m (AMSL)

Popular Alternatives